createdAt,value
2023-04-12T00:01:08.377Z,2.17
2023-04-12T00:03:39.618Z,4.05
2023-04-12T00:06:11.823Z,2.67
2023-04-12T00:08:42.973Z,4.03
2023-04-12T00:11:14.119Z,5.73
2023-04-12T00:13:44.690Z,5.43
2023-04-12T00:16:16.098Z,2.97
2023-04-12T00:18:47.042Z,6.97
2023-04-12T00:21:19.943Z,6.50
2023-04-12T00:23:50.618Z,4.80
2023-04-12T00:26:21.941Z,2.43
2023-04-12T00:28:52.738Z,3.53
2023-04-12T00:31:24.018Z,3.60
2023-04-12T00:33:55.110Z,3.93
2023-04-12T00:36:27.069Z,2.77
2023-04-12T00:38:57.677Z,2.57
2023-04-12T00:41:28.900Z,2.97
2023-04-12T00:43:59.714Z,5.37
2023-04-12T00:46:30.690Z,4.00
2023-04-12T00:49:01.767Z,4.27
2023-04-12T00:51:34.091Z,5.47
2023-04-12T00:54:05.625Z,3.97
2023-04-12T00:56:37.855Z,4.53
2023-04-12T00:59:08.752Z,2.13
2023-04-12T01:01:41.516Z,1.53
2023-04-12T01:04:14.229Z,3.27
2023-04-12T01:06:51.027Z,7.90
2023-04-12T01:09:27.510Z,2.27
2023-04-12T01:12:04.338Z,3.60
2023-04-12T01:14:39.095Z,2.13
2023-04-12T01:17:13.608Z,2.43
2023-04-12T01:20:36.255Z,3.70
2023-04-12T01:23:35.191Z,7.27
2023-04-12T01:26:20.564Z,3.40
2023-04-12T01:28:54.366Z,3.07
2023-04-12T01:31:26.195Z,2.33
2023-04-12T01:33:58.922Z,4.33
2023-04-12T01:36:49.636Z,5.03
2023-04-12T01:39:21.533Z,1.97
2023-04-12T01:41:52.844Z,4.10
2023-04-12T01:44:23.454Z,4.27
2023-04-12T01:46:54.601Z,4.40
2023-04-12T01:49:28.276Z,3.83
2023-04-12T01:52:02.004Z,5.80
2023-04-12T01:54:35.883Z,2.17
2023-04-12T01:57:08.816Z,4.47
2023-04-12T01:59:42.420Z,6.70
2023-04-12T02:02:14.261Z,5.33
2023-04-12T02:04:45.981Z,2.63
2023-04-12T02:07:20.561Z,5.37
2023-04-12T02:09:51.228Z,4.87
2023-04-12T02:12:23.701Z,3.43
2023-04-12T02:14:54.644Z,4.80
2023-04-12T02:17:25.270Z,4.70
2023-04-12T02:19:55.893Z,3.33
2023-04-12T02:22:26.633Z,4.67
2023-04-12T02:24:57.884Z,4.60
2023-04-12T02:27:28.459Z,4.73
2023-04-12T02:29:59.972Z,2.60
2023-04-12T02:32:40.167Z,4.97
2023-04-12T02:35:12.071Z,3.33
2023-04-12T02:37:44.141Z,5.97
2023-04-12T02:40:16.517Z,7.33
2023-04-12T02:42:47.202Z,8.17
2023-04-12T02:45:17.886Z,2.33
2023-04-12T02:47:48.496Z,3.57
2023-04-12T02:50:19.277Z,3.67
2023-04-12T02:52:49.988Z,4.70
2023-04-12T02:55:20.758Z,5.17
2023-04-12T02:57:51.818Z,3.93
2023-04-12T03:00:22.893Z,4.73
2023-04-12T03:02:53.675Z,2.90
2023-04-12T03:05:24.864Z,2.90
2023-04-12T03:07:55.474Z,4.07
2023-04-12T03:10:26.254Z,3.67
2023-04-12T03:12:56.832Z,4.67
2023-04-12T03:15:28.507Z,4.90
2023-04-12T03:17:59.205Z,5.23
2023-04-12T03:20:48.726Z,4.93
2023-04-12T03:23:20.186Z,2.33
2023-04-12T03:25:50.987Z,4.53
2023-04-12T03:28:22.041Z,6.33
2023-04-12T03:30:53.029Z,2.03
2023-04-12T03:33:23.725Z,2.83
2023-04-12T03:35:54.357Z,2.90
2023-04-12T03:38:25.124Z,2.87
2023-04-12T03:40:55.793Z,6.37
2023-04-12T03:43:27.516Z,3.50
2023-04-12T03:45:58.113Z,4.50
2023-04-12T03:48:28.771Z,3.13
2023-04-12T03:51:00.224Z,3.23
2023-04-12T03:53:31.587Z,2.50
2023-04-12T03:56:02.171Z,3.60
2023-04-12T03:58:34.183Z,2.73
2023-04-12T04:01:06.973Z,3.63
2023-04-12T04:03:38.036Z,3.23
2023-04-12T04:06:10.917Z,2.90
2023-04-12T04:08:42.896Z,4.00
2023-04-12T04:11:14.406Z,3.50
2023-04-12T04:13:46.828Z,4.53
2023-04-12T04:16:18.322Z,5.40
2023-04-12T04:18:49.047Z,8.23
2023-04-12T04:21:19.789Z,5.93
2023-04-12T04:23:52.225Z,10.87
2023-04-12T04:26:24.445Z,6.00
2023-04-12T04:28:55.048Z,5.93
2023-04-12T04:31:26.703Z,8.27
2023-04-12T04:33:57.579Z,4.77
2023-04-12T04:36:28.475Z,9.50
2023-04-12T04:38:59.282Z,7.10
2023-04-12T04:41:34.738Z,4.60
2023-04-12T04:44:07.213Z,5.20
2023-04-12T04:46:39.756Z,9.60
2023-04-12T04:49:10.392Z,11.23
2023-04-12T04:51:41.149Z,10.97
2023-04-12T04:54:12.126Z,7.03
2023-04-12T04:56:42.772Z,8.63
2023-04-12T04:59:13.665Z,4.70
2023-04-12T05:01:44.552Z,6.63
2023-04-12T05:04:15.642Z,10.93
2023-04-12T05:06:47.773Z,5.23
2023-04-12T05:09:18.419Z,3.43
2023-04-12T05:11:49.157Z,6.83
2023-04-12T05:14:20.444Z,14.10
2023-04-12T05:19:30.125Z,14.43
2023-04-12T05:22:01.476Z,11.60
2023-04-12T05:24:32.267Z,10.43
2023-04-12T05:27:02.949Z,7.73
2023-04-12T05:29:33.569Z,5.57
2023-04-12T05:32:05.090Z,12.07
2023-04-12T05:34:36.006Z,5.73
2023-04-12T05:37:07.062Z,8.37
2023-04-12T05:39:37.841Z,7.00
2023-04-12T05:42:09.770Z,8.60
2023-04-12T05:44:41.708Z,10.87
2023-04-12T05:47:12.376Z,7.90
2023-04-12T05:49:43.052Z,6.60
2023-04-12T05:52:13.631Z,4.43
2023-04-12T05:54:44.257Z,6.23
2023-04-12T05:57:15.508Z,7.90
2023-04-12T05:59:46.930Z,10.13
2023-04-12T06:02:17.825Z,7.53
2023-04-12T06:04:51.011Z,3.93
2023-04-12T06:07:21.492Z,10.50
2023-04-12T06:09:52.266Z,4.97
2023-04-12T06:12:22.929Z,7.10
2023-04-12T06:14:53.896Z,3.83
2023-04-12T06:17:24.530Z,4.43
2023-04-12T06:22:34.904Z,6.40
2023-04-12T06:25:06.384Z,7.37
2023-04-12T06:27:37.072Z,6.73
2023-04-12T06:30:11.333Z,6.33
2023-04-12T06:32:42.393Z,8.23
2023-04-12T06:35:13.214Z,6.40
2023-04-12T06:37:44.010Z,4.37
2023-04-12T06:40:15.057Z,7.83
2023-04-12T06:42:45.892Z,8.70
2023-04-12T06:45:16.632Z,6.83
2023-04-12T06:47:47.645Z,8.33
2023-04-12T06:50:19.429Z,5.80
2023-04-12T06:52:50.067Z,5.30
2023-04-12T06:55:21.252Z,7.77
2023-04-12T06:57:52.365Z,8.90
2023-04-12T07:00:24.215Z,7.10
2023-04-12T07:02:55.484Z,6.33
2023-04-12T07:05:26.547Z,4.90
2023-04-12T07:07:57.276Z,7.63
2023-04-12T07:10:28.106Z,10.13
2023-04-12T07:13:00.402Z,6.80
2023-04-12T07:15:31.003Z,10.03
2023-04-12T07:18:01.742Z,7.17
2023-04-12T07:20:32.458Z,10.07
2023-04-12T07:23:03.382Z,16.57
2023-04-12T07:25:34.623Z,6.77
2023-04-12T07:28:06.995Z,12.27
2023-04-12T07:30:40.064Z,6.23
2023-04-12T07:33:19.245Z,6.50
2023-04-12T07:35:43.689Z,5.73
2023-04-12T07:38:16.567Z,5.33
2023-04-12T07:40:49.954Z,9.27
2023-04-12T07:43:19.817Z,4.30
2023-04-12T07:45:50.957Z,7.80
2023-04-12T07:48:21.929Z,8.40
2023-04-12T07:50:52.817Z,9.88
2023-04-12T07:53:24.986Z,6.97
2023-04-12T07:55:56.523Z,10.83
2023-04-12T07:58:27.555Z,11.50
2023-04-12T08:01:00.941Z,7.80
2023-04-12T08:03:31.198Z,7.87
2023-04-12T08:06:02.376Z,7.50
2023-04-12T08:08:33.160Z,7.80
2023-04-12T08:11:05.526Z,6.27
2023-04-12T08:13:36.603Z,8.67
2023-04-12T08:18:44.345Z,6.40
2023-04-12T08:21:15.311Z,4.73
2023-04-12T08:23:46.572Z,6.40
2023-04-12T08:26:17.263Z,9.40
2023-04-12T08:28:48.790Z,7.23
2023-04-12T08:31:19.509Z,9.97
2023-04-12T08:33:50.223Z,4.67
2023-04-12T08:36:21.095Z,5.40
2023-04-12T08:38:53.205Z,5.43
2023-04-12T08:41:24.321Z,6.50
2023-04-12T08:43:56.936Z,8.50
2023-04-12T08:46:28.419Z,6.50
2023-04-12T08:48:59.927Z,5.87
2023-04-12T08:51:31.474Z,7.20
2023-04-12T08:54:02.249Z,7.07
2023-04-12T08:59:10.561Z,11.70
2023-04-12T09:01:43.872Z,14.37
2023-04-12T09:04:14.974Z,10.50
2023-04-12T09:06:46.011Z,11.53
2023-04-12T09:09:17.330Z,8.23
2023-04-12T09:11:48.379Z,8.93
2023-04-12T09:17:03.528Z,9.00
2023-04-12T09:19:36.177Z,9.73
2023-04-12T09:22:07.192Z,11.10
2023-04-12T09:24:48.966Z,8.50
2023-04-12T09:27:21.902Z,19.17
2023-04-12T09:29:53.315Z,8.77
2023-04-12T09:32:28.955Z,11.93
2023-04-12T09:35:02.460Z,10.50
2023-04-12T09:37:33.374Z,6.50
2023-04-12T09:40:05.527Z,9.23
2023-04-12T09:42:37.869Z,7.90
2023-04-12T09:45:25.914Z,6.87
2023-04-12T09:47:57.454Z,12.67
2023-04-12T09:50:29.804Z,4.37
2023-04-12T09:53:01.746Z,4.33
2023-04-12T09:55:33.376Z,7.47
2023-04-12T09:58:05.788Z,9.43
2023-04-12T10:00:37.400Z,14.60
2023-04-12T10:03:08.479Z,8.07
2023-04-12T10:05:41.413Z,5.27
2023-04-12T10:08:15.432Z,7.67
2023-04-12T10:10:48.377Z,7.73
2023-04-12T10:13:20.915Z,11.67
2023-04-12T10:15:53.441Z,7.33
2023-04-12T10:18:25.346Z,6.53
2023-04-12T10:20:56.654Z,5.70
2023-04-12T10:23:28.794Z,7.07
2023-04-12T10:26:00.360Z,12.73
2023-04-12T10:28:31.825Z,6.10
2023-04-12T10:31:04.507Z,8.87
2023-04-12T10:33:35.515Z,6.30
2023-04-12T10:36:09.139Z,8.73
2023-04-12T10:38:50.413Z,6.93
2023-04-12T10:41:22.085Z,8.30
2023-04-12T10:43:53.723Z,10.60
2023-04-12T10:46:54.503Z,9.70
2023-04-12T10:49:25.369Z,6.03
2023-04-12T10:52:16.203Z,10.40
2023-04-12T10:54:47.020Z,6.50
2023-04-12T10:57:49.940Z,9.07
2023-04-12T11:00:21.099Z,10.30
2023-04-12T11:03:13.710Z,10.53
2023-04-12T11:06:16.196Z,8.83
2023-04-12T11:08:43.014Z,10.43
2023-04-12T11:11:23.291Z,13.83
2023-04-12T11:13:59.966Z,10.40
2023-04-12T11:19:09.669Z,10.87
2023-04-12T11:21:40.613Z,7.00
2023-04-12T11:24:14.563Z,8.97
2023-04-12T11:26:46.475Z,7.23
2023-04-12T11:29:18.899Z,9.83
2023-04-12T11:31:50.130Z,11.50
2023-04-12T11:34:21.352Z,5.60
2023-04-12T11:36:55.194Z,4.37
2023-04-12T11:39:30.607Z,6.63
2023-04-12T11:42:03.487Z,5.57
2023-04-12T11:44:52.470Z,9.97
2023-04-12T11:47:10.688Z,7.10
2023-04-12T11:49:46.066Z,5.30
2023-04-12T11:52:18.255Z,4.40
2023-04-12T11:54:51.090Z,4.37
2023-04-12T12:00:00.465Z,9.87
2023-04-12T12:02:38.382Z,4.30
2023-04-12T12:05:08.663Z,4.93
2023-04-12T12:07:40.198Z,7.03
2023-04-12T12:10:18.485Z,6.63
2023-04-12T12:12:49.145Z,4.63
2023-04-12T12:15:20.822Z,5.37
2023-04-12T12:17:54.216Z,3.33
2023-04-12T12:20:26.862Z,6.37
2023-04-12T12:22:58.023Z,4.80
2023-04-12T12:25:30.682Z,6.73
2023-04-12T12:28:03.286Z,7.53
2023-04-12T12:30:35.627Z,5.60
2023-04-12T12:33:06.415Z,9.37
2023-04-12T12:35:38.843Z,6.63
2023-04-12T12:40:49.176Z,3.13
2023-04-12T12:43:22.107Z,5.23
2023-04-12T12:45:52.845Z,5.77
2023-04-12T12:48:23.604Z,5.47
2023-04-12T12:50:54.384Z,3.23
2023-04-12T12:53:25.058Z,10.97
2023-04-12T12:55:55.819Z,4.27
2023-04-12T12:58:27.351Z,6.50
2023-04-12T13:00:58.290Z,5.50
2023-04-12T13:03:30.013Z,7.00
2023-04-12T13:06:01.156Z,6.67
2023-04-12T13:08:34.858Z,7.30
2023-04-12T13:11:05.819Z,6.50
2023-04-12T13:13:36.653Z,4.47
2023-04-12T13:16:09.156Z,7.83
2023-04-12T13:18:40.151Z,4.30
2023-04-12T13:21:11.040Z,8.27
2023-04-12T13:23:42.468Z,6.03
2023-04-12T13:26:13.267Z,5.83
2023-04-12T13:28:44.023Z,4.17
2023-04-12T13:31:14.702Z,3.30
2023-04-12T13:33:45.684Z,4.77
2023-04-12T13:36:16.438Z,3.97
2023-04-12T13:38:47.679Z,3.80
2023-04-12T13:41:19.337Z,5.37
2023-04-12T13:43:50.063Z,6.57
2023-04-12T13:46:20.950Z,5.90
2023-04-12T13:48:52.057Z,8.13
2023-04-12T13:51:22.884Z,12.87
2023-04-12T13:53:53.656Z,21.37
2023-04-12T13:56:24.680Z,18.57
2023-04-12T13:58:55.653Z,12.93
2023-04-12T14:01:27.432Z,9.90
2023-04-12T14:03:58.551Z,8.57
2023-04-12T14:06:30.400Z,7.07
2023-04-12T14:09:01.380Z,6.00
2023-04-12T14:11:32.181Z,8.60
2023-04-12T14:14:03.028Z,7.33
2023-04-12T14:16:34.041Z,7.10
2023-04-12T14:19:04.735Z,7.37
2023-04-12T14:21:35.594Z,5.40
2023-04-12T14:24:16.193Z,5.23
2023-04-12T14:26:47.078Z,5.50
2023-04-12T14:29:18.658Z,7.47
2023-04-12T14:31:49.564Z,7.30
2023-04-12T14:34:21.694Z,7.57
2023-04-12T14:36:52.412Z,7.93
2023-04-12T14:42:01.706Z,5.40
2023-04-12T14:44:32.747Z,5.17
2023-04-12T14:47:03.438Z,5.40
2023-04-12T14:49:34.149Z,5.77
2023-04-12T14:52:06.816Z,2.17
2023-04-12T14:54:37.542Z,4.83
2023-04-12T14:57:08.206Z,2.53
2023-04-12T14:59:39.159Z,3.73
2023-04-12T15:02:10.156Z,4.53
2023-04-12T15:04:42.124Z,4.03
2023-04-12T15:07:12.912Z,5.97
2023-04-12T15:09:44.375Z,3.17
2023-04-12T15:12:15.127Z,5.60
2023-04-12T15:14:46.615Z,4.00
2023-04-12T15:17:17.256Z,6.90
2023-04-12T15:19:48.007Z,7.60
2023-04-12T15:22:18.933Z,7.73
2023-04-12T15:24:49.727Z,5.07
2023-04-12T15:27:20.564Z,5.50
2023-04-12T15:29:51.172Z,6.73
2023-04-12T15:32:23.051Z,5.77
2023-04-12T15:34:55.495Z,4.83
2023-04-12T15:37:26.889Z,13.47
2023-04-12T15:39:57.804Z,7.10
2023-04-12T15:42:29.424Z,5.90
2023-04-12T15:45:01.032Z,7.27
2023-04-12T15:47:32.288Z,6.87
2023-04-12T15:50:03.163Z,6.10
2023-04-12T15:52:34.258Z,8.03
2023-04-12T15:57:42.408Z,8.47
2023-04-12T16:00:22.892Z,7.93
2023-04-12T16:02:55.186Z,9.50
2023-04-12T16:05:27.444Z,9.20
2023-04-12T16:07:59.550Z,7.83
2023-04-12T16:13:06.821Z,9.10
2023-04-12T16:15:37.837Z,6.10
2023-04-12T16:18:09.425Z,7.17
2023-04-12T16:23:18.214Z,8.60
2023-04-12T16:25:49.458Z,6.63
2023-04-12T16:28:22.923Z,6.50
2023-04-12T16:30:54.239Z,11.20
2023-04-12T16:33:25.222Z,9.10
2023-04-12T16:35:56.112Z,9.67
2023-04-12T16:38:27.136Z,9.27
2023-04-12T16:40:58.178Z,9.03
2023-04-12T16:43:29.409Z,10.07
2023-04-12T16:46:02.058Z,9.53
2023-04-12T16:48:32.905Z,8.27
2023-04-12T16:51:04.902Z,10.17
2023-04-12T16:53:35.553Z,7.07
2023-04-12T16:56:06.844Z,9.17
2023-04-12T16:58:37.855Z,5.60
2023-04-12T17:01:09.760Z,5.27
2023-04-12T17:03:47.566Z,7.83
2023-04-12T17:06:21.136Z,8.77
2023-04-12T17:08:59.179Z,12.45
2023-04-12T17:11:31.259Z,9.63
2023-04-12T17:14:17.472Z,10.30
2023-04-12T17:16:52.026Z,10.40
2023-04-12T17:19:36.063Z,8.67
2023-04-12T17:22:45.009Z,14.03
2023-04-12T17:25:24.912Z,8.73
2023-04-12T17:28:13.235Z,11.07
2023-04-12T17:30:48.672Z,8.93
2023-04-12T17:33:19.640Z,6.97
2023-04-12T17:35:50.233Z,11.97
2023-04-12T17:38:20.968Z,8.27
2023-04-12T17:40:51.997Z,7.67
2023-04-12T17:43:23.059Z,10.93
2023-04-12T17:45:53.826Z,13.77
2023-04-12T17:48:24.543Z,6.13
2023-04-12T17:53:34.213Z,9.97
2023-04-12T17:56:05.335Z,9.10
2023-04-12T17:58:36.032Z,7.43
2023-04-12T18:01:07.129Z,4.90
2023-04-12T18:03:38.584Z,5.33
2023-04-12T18:06:09.608Z,6.43
2023-04-12T18:11:19.529Z,5.53
2023-04-12T18:13:50.104Z,5.20
2023-04-12T18:16:21.247Z,5.97
2023-04-12T18:18:52.810Z,6.00
2023-04-12T18:21:23.672Z,5.13
2023-04-12T18:23:54.613Z,4.77
2023-04-12T18:26:26.386Z,6.47
2023-04-12T18:28:57.662Z,5.83
2023-04-12T18:31:28.909Z,10.27
2023-04-12T18:33:59.770Z,12.33
2023-04-12T18:36:31.617Z,5.37
2023-04-12T18:39:02.270Z,3.67
2023-04-12T18:41:33.069Z,5.43
2023-04-12T18:44:04.048Z,5.07
2023-04-12T18:46:35.657Z,5.63
2023-04-12T18:49:06.875Z,4.93
2023-04-12T18:51:37.969Z,6.27
2023-04-12T18:54:10.568Z,3.47
2023-04-12T18:56:42.550Z,3.73
2023-04-12T18:59:14.894Z,4.57
2023-04-12T19:01:46.849Z,2.97
2023-04-12T19:04:18.270Z,3.30
2023-04-12T19:06:49.283Z,5.70
2023-04-12T19:09:20.205Z,3.00
2023-04-12T19:11:51.213Z,6.20
2023-04-12T19:14:21.969Z,2.60
2023-04-12T19:16:53.247Z,2.70
2023-04-12T19:19:24.053Z,1.93
2023-04-12T19:21:54.967Z,1.37
2023-04-12T19:24:25.993Z,2.67
2023-04-12T19:26:57.725Z,2.13
2023-04-12T19:29:28.729Z,3.17
2023-04-12T19:32:00.965Z,3.10
2023-04-12T19:34:32.297Z,1.90
2023-04-12T19:37:03.788Z,2.50
2023-04-12T19:39:35.022Z,1.90
2023-04-12T19:42:06.287Z,3.47
2023-04-12T19:44:40.229Z,1.60
2023-04-12T19:47:09.982Z,2.30
2023-04-12T19:49:40.692Z,2.43
2023-04-12T19:52:11.400Z,5.63
2023-04-12T19:54:42.039Z,2.07
2023-04-12T19:57:13.437Z,6.07
2023-04-12T19:59:44.000Z,2.40
2023-04-12T20:02:14.675Z,2.87
2023-04-12T20:04:45.428Z,1.70
2023-04-12T20:07:16.219Z,1.53
2023-04-12T20:09:46.832Z,1.73
2023-04-12T20:12:17.941Z,1.23
2023-04-12T20:14:48.590Z,1.30
2023-04-12T20:17:19.143Z,1.73
2023-04-12T20:19:50.281Z,0.63
2023-04-12T20:22:22.382Z,1.80
2023-04-12T20:24:54.311Z,1.17
2023-04-12T20:27:25.026Z,2.70
2023-04-12T20:29:55.707Z,1.40
2023-04-12T20:32:26.649Z,0.80
2023-04-12T20:34:58.466Z,1.60
2023-04-12T20:37:29.146Z,1.07
2023-04-12T20:40:00.390Z,1.47
2023-04-12T20:42:31.029Z,0.80
2023-04-12T20:45:01.803Z,1.30
2023-04-12T20:47:34.898Z,1.17
2023-04-12T20:50:06.250Z,0.83
2023-04-12T20:52:37.055Z,2.17
2023-04-12T20:55:11.214Z,1.87
2023-04-12T20:57:42.047Z,1.40
2023-04-12T21:00:18.210Z,0.53
2023-04-12T21:02:49.116Z,0.83
2023-04-12T21:05:20.369Z,0.97
2023-04-12T21:07:51.646Z,0.83
2023-04-12T21:10:22.452Z,2.23
2023-04-12T21:12:53.170Z,0.73
2023-04-12T21:15:24.861Z,0.87
2023-04-12T21:17:55.674Z,0.80
2023-04-12T21:20:26.880Z,14.93
2023-04-12T21:22:57.455Z,0.80
2023-04-12T21:25:28.385Z,0.73
2023-04-12T21:27:58.945Z,1.43
2023-04-12T21:30:29.585Z,1.07
2023-04-12T21:33:02.103Z,1.17
2023-04-12T21:35:32.996Z,1.40
2023-04-12T21:38:03.888Z,1.10
2023-04-12T21:40:34.645Z,3.80
2023-04-12T21:43:05.311Z,1.30
2023-04-12T21:45:36.014Z,1.83
2023-04-12T21:48:07.140Z,4.67
2023-04-12T21:50:38.325Z,2.40
2023-04-12T21:53:09.241Z,4.70
2023-04-12T21:55:40.263Z,6.50
2023-04-12T21:58:11.113Z,0.87
2023-04-12T22:00:41.799Z,3.70
2023-04-12T22:03:12.772Z,1.63
2023-04-12T22:05:51.099Z,1.93
2023-04-12T22:08:17.620Z,4.83
2023-04-12T22:10:49.212Z,4.03
2023-04-12T22:13:21.880Z,2.93
2023-04-12T22:15:53.562Z,2.73
2023-04-12T22:18:24.226Z,1.90
2023-04-12T22:20:57.927Z,4.47
2023-04-12T22:23:29.473Z,2.33
2023-04-12T22:26:00.064Z,3.10
2023-04-12T22:28:30.775Z,1.70
2023-04-12T22:31:02.560Z,5.70
2023-04-12T22:33:33.641Z,1.90
2023-04-12T22:36:06.322Z,2.10
2023-04-12T22:38:56.215Z,2.50
2023-04-12T22:41:28.618Z,1.83
2023-04-12T22:44:02.090Z,3.20
2023-04-12T22:46:33.331Z,2.93
2023-04-12T22:49:04.932Z,1.27
2023-04-12T22:51:35.659Z,1.43
2023-04-12T22:54:08.725Z,1.17
2023-04-12T22:56:58.030Z,1.23
2023-04-12T22:59:28.762Z,0.80
2023-04-12T23:01:59.821Z,0.87
2023-04-12T23:04:30.641Z,4.03
2023-04-12T23:07:02.275Z,1.17
2023-04-12T23:09:33.483Z,4.00
2023-04-12T23:12:06.596Z,2.90
2023-04-12T23:14:37.810Z,0.80
2023-04-12T23:17:08.619Z,1.57
2023-04-12T23:19:39.282Z,3.17
2023-04-12T23:22:10.765Z,4.73
2023-04-12T23:24:41.567Z,1.17
2023-04-12T23:27:12.381Z,1.23
2023-04-12T23:29:43.727Z,1.77
2023-04-12T23:32:14.809Z,2.47
2023-04-12T23:34:46.694Z,2.83
2023-04-12T23:37:18.009Z,3.20
2023-04-12T23:39:48.919Z,1.27
2023-04-12T23:42:20.352Z,1.10
2023-04-12T23:44:51.628Z,3.00
2023-04-12T23:47:22.337Z,1.60
2023-04-12T23:49:52.957Z,3.73
2023-04-12T23:52:23.619Z,4.47
2023-04-12T23:54:54.212Z,3.13
2023-04-12T23:57:25.419Z,1.33
2023-04-12T23:59:56.339Z,3.80
